createdAt,value
2019-03-17T00:01:18.056Z,98285.12
2019-03-17T00:06:39.229Z,98280.52
2019-03-17T00:12:00.421Z,98305.88
2019-03-17T00:17:21.568Z,98274.81
2019-03-17T00:22:42.739Z,98299.98
2019-03-17T00:28:03.918Z,98292.59
2019-03-17T00:33:25.141Z,98293.09
2019-03-17T00:38:46.311Z,98290.44
2019-03-17T00:44:07.527Z,98282.28
2019-03-17T00:49:28.965Z,98269.66
2019-03-17T00:54:49.871Z,98273.14
2019-03-17T01:00:11.896Z,98272.71
2019-03-17T01:05:32.823Z,98281.62
2019-03-17T01:10:54.225Z,98287.98
2019-03-17T01:16:15.225Z,98281.23
2019-03-17T01:21:36.368Z,98290.61
2019-03-17T01:26:57.670Z,98293.95
2019-03-17T01:32:18.594Z,98304.08
2019-03-17T01:37:39.826Z,98311.50
2019-03-17T01:43:01.031Z,98318.74
2019-03-17T01:48:22.284Z,98329.59
2019-03-17T01:53:43.302Z,98327.30
2019-03-17T01:59:04.741Z,98331.07
2019-03-17T02:04:25.676Z,98332.28
2019-03-17T02:09:46.926Z,98332.39
2019-03-17T02:15:08.271Z,98340.64
2019-03-17T02:20:29.361Z,98333.20
2019-03-17T02:25:50.740Z,98341.27
2019-03-17T02:31:12.109Z,98342.83
2019-03-17T02:36:33.784Z,98338.29
2019-03-17T02:41:54.935Z,98327.55
2019-03-17T02:47:16.220Z,98324.89
2019-03-17T02:52:37.595Z,98329.85
2019-03-17T02:57:58.559Z,98329.59
2019-03-17T03:03:19.877Z,98331.74
2019-03-17T03:08:41.154Z,98341.53
2019-03-17T03:14:02.760Z,98341.38
2019-03-17T03:19:23.581Z,98346.44
2019-03-17T03:24:44.835Z,98362.67
2019-03-17T03:30:06.836Z,98367.08
2019-03-17T03:35:27.816Z,98380.25
2019-03-17T03:40:48.979Z,98379.63
2019-03-17T03:46:10.149Z,98374.70
2019-03-17T03:51:31.643Z,98390.05
2019-03-17T03:56:52.977Z,98394.85
2019-03-17T04:02:14.395Z,98398.53
2019-03-17T04:07:35.511Z,98396.72
2019-03-17T04:12:56.554Z,98400.39
2019-03-17T04:18:17.765Z,98397.22
2019-03-17T04:23:38.982Z,98391.53
2019-03-17T04:29:00.233Z,98386.53
2019-03-17T04:34:21.397Z,98387.41
2019-03-17T04:39:42.367Z,98393.64
2019-03-17T04:45:03.809Z,98408.16
2019-03-17T04:50:25.150Z,98407.44
2019-03-17T04:55:46.266Z,98410.64
2019-03-17T05:01:07.516Z,98418.95
2019-03-17T05:06:28.525Z,98419.83
2019-03-17T05:11:49.691Z,98420.70
2019-03-17T05:17:11.177Z,98416.63
2019-03-17T05:22:32.433Z,98415.95
2019-03-17T05:27:53.782Z,98424.34
2019-03-17T05:33:14.694Z,98416.99
2019-03-17T05:38:35.817Z,98427.61
2019-03-17T05:43:56.995Z,98420.27
2019-03-17T05:49:18.246Z,98412.62
2019-03-17T05:54:39.534Z,98404.25
2019-03-17T06:00:00.606Z,98418.48
2019-03-17T06:05:21.951Z,98445.28
2019-03-17T06:10:43.045Z,98419.48
2019-03-17T06:16:04.451Z,98434.40
2019-03-17T06:21:25.425Z,98436.56
2019-03-17T06:26:46.585Z,98442.23
2019-03-17T06:32:07.855Z,98452.05
2019-03-17T06:37:31.203Z,98459.73
2019-03-17T06:42:52.017Z,98474.05
2019-03-17T06:48:12.987Z,98473.09
2019-03-17T06:53:34.387Z,98483.66
2019-03-17T06:58:55.625Z,98495.39
2019-03-17T07:04:16.913Z,98497.11
2019-03-17T07:09:38.410Z,98502.30
2019-03-17T07:14:59.934Z,98501.83
2019-03-17T07:20:21.187Z,98497.63
2019-03-17T07:25:42.338Z,98493.80
2019-03-17T07:31:03.872Z,98505.40
2019-03-17T07:36:24.819Z,98500.03
2019-03-17T07:41:46.050Z,98504.34
2019-03-17T07:47:07.168Z,98504.62
2019-03-17T07:52:28.549Z,98525.88
2019-03-17T07:57:49.744Z,98534.74
2019-03-17T08:03:10.929Z,98523.19
2019-03-17T08:08:32.212Z,98531.32
2019-03-17T08:13:53.565Z,98531.66
2019-03-17T08:19:14.771Z,98529.41
2019-03-17T08:24:36.006Z,98528.27
2019-03-17T08:29:57.219Z,98529.14
2019-03-17T08:35:17.988Z,98523.00
2019-03-17T08:40:39.173Z,98526.42
2019-03-17T08:46:00.641Z,98541.95
2019-03-17T08:51:21.764Z,98526.45
2019-03-17T08:56:42.898Z,98533.23
2019-03-17T09:02:03.867Z,98530.67
2019-03-17T09:07:27.734Z,98524.10
2019-03-17T09:12:48.313Z,98528.10
2019-03-17T09:18:09.303Z,98519.33
2019-03-17T09:23:30.686Z,98513.98
2019-03-17T09:28:51.848Z,98501.89
2019-03-17T09:34:13.267Z,98496.08
2019-03-17T09:39:34.410Z,98481.69
2019-03-17T09:44:55.676Z,98484.72
2019-03-17T09:50:16.551Z,98481.41
2019-03-17T09:55:37.867Z,98474.90
2019-03-17T10:00:59.176Z,98465.38
2019-03-17T10:06:20.215Z,98458.52
2019-03-17T10:11:41.317Z,98459.52
2019-03-17T10:17:02.877Z,98454.48
2019-03-17T10:22:24.027Z,98453.73
2019-03-17T10:27:45.235Z,98437.27
2019-03-17T10:33:06.557Z,98419.98
2019-03-17T10:38:27.637Z,98419.98
2019-03-17T10:43:48.804Z,98420.61
2019-03-17T10:49:10.158Z,98423.28
2019-03-17T10:54:31.255Z,98396.42
2019-03-17T10:59:52.740Z,98396.42
2019-03-17T11:05:14.181Z,98385.48
2019-03-17T11:10:35.395Z,98385.48
2019-03-17T11:15:56.587Z,98372.80
2019-03-17T11:21:17.982Z,98376.22
2019-03-17T11:26:38.918Z,98369.67
2019-03-17T11:31:59.983Z,98363.99
2019-03-17T11:37:23.548Z,98363.99
2019-03-17T11:42:44.612Z,98336.42
2019-03-17T11:48:05.803Z,98336.42
2019-03-17T11:53:27.092Z,98336.02
2019-03-17T11:58:48.368Z,98337.92
2019-03-17T12:04:09.586Z,98341.42
2019-03-17T12:09:30.917Z,98335.05
2019-03-17T12:14:52.479Z,98328.36
2019-03-17T12:20:13.805Z,98325.38
2019-03-17T12:25:34.838Z,98318.16
2019-03-17T12:30:56.090Z,98325.65
2019-03-17T12:36:19.011Z,98317.39
2019-03-17T12:41:40.499Z,98318.69
2019-03-17T12:47:01.702Z,98307.08
2019-03-17T12:52:23.124Z,98302.92
2019-03-17T12:57:44.071Z,98293.80
2019-03-17T13:03:05.254Z,98296.86
2019-03-17T13:08:26.415Z,98296.07
2019-03-17T13:13:47.487Z,98299.85
2019-03-17T13:19:08.889Z,98290.81
2019-03-17T13:24:30.403Z,98290.00
2019-03-17T13:29:52.040Z,98296.97
2019-03-17T13:35:13.311Z,98288.38
2019-03-17T13:40:34.590Z,98283.88
2019-03-17T13:45:55.630Z,98285.59
2019-03-17T13:51:16.852Z,98282.70
2019-03-17T13:56:37.916Z,98275.31
2019-03-17T14:01:59.163Z,98267.94
2019-03-17T14:07:20.739Z,98263.20
2019-03-17T14:12:42.486Z,98259.84
2019-03-17T14:18:03.641Z,98261.53
2019-03-17T14:23:24.817Z,98259.33
2019-03-17T14:28:46.174Z,98254.06
2019-03-17T14:34:07.124Z,98256.83
2019-03-17T14:39:28.358Z,98257.33
2019-03-17T14:44:49.864Z,98258.16
2019-03-17T14:50:13.494Z,98254.52
2019-03-17T14:55:35.757Z,98260.30
2019-03-17T15:00:57.205Z,98259.90
2019-03-17T15:06:18.286Z,98251.92
2019-03-17T15:11:39.721Z,98261.34
2019-03-17T15:17:01.170Z,98261.52
2019-03-17T15:22:22.654Z,98273.50
2019-03-17T15:27:43.578Z,98277.95
2019-03-17T15:33:04.849Z,98269.64
2019-03-17T15:38:25.844Z,98270.06
2019-03-17T15:43:47.099Z,98271.70
2019-03-17T15:49:08.761Z,98267.95
2019-03-17T15:54:29.911Z,98282.36
2019-03-17T15:59:51.279Z,98279.55
2019-03-17T16:05:12.579Z,98285.52
2019-03-17T16:10:34.094Z,98284.67
2019-03-17T16:15:55.246Z,98289.95
2019-03-17T16:21:16.445Z,98287.83
2019-03-17T16:26:37.809Z,98286.59
2019-03-17T16:31:58.991Z,98294.75
2019-03-17T16:37:20.157Z,98296.58
2019-03-17T16:42:41.386Z,98298.36
2019-03-17T16:48:02.651Z,98330.19
2019-03-17T16:53:23.842Z,98337.02
2019-03-17T16:58:45.034Z,98319.95
2019-03-17T17:04:06.052Z,98337.92
2019-03-17T17:09:27.585Z,98346.90
2019-03-17T17:14:49.150Z,98350.99
2019-03-17T17:20:12.717Z,98355.73
2019-03-17T17:25:33.791Z,98363.22
2019-03-17T17:30:54.918Z,98364.31
2019-03-17T17:36:18.428Z,98368.76
2019-03-17T17:41:39.809Z,98362.37
2019-03-17T17:47:05.238Z,98379.46
2019-03-17T17:52:28.102Z,98377.92
2019-03-17T17:57:49.357Z,98386.97
2019-03-17T18:03:10.453Z,98383.64
2019-03-17T18:08:31.681Z,98377.09
2019-03-17T18:13:52.926Z,98388.95
2019-03-17T18:19:14.047Z,98382.13
2019-03-17T18:24:35.286Z,98384.06
2019-03-17T18:29:56.512Z,98383.67
2019-03-17T18:35:17.820Z,98385.03
2019-03-17T18:40:39.193Z,98384.23
2019-03-17T18:46:00.621Z,98387.80
2019-03-17T18:51:21.952Z,98386.86
2019-03-17T18:56:43.439Z,98382.02
2019-03-17T19:02:04.340Z,98382.45
2019-03-17T19:07:25.630Z,98379.20
2019-03-17T19:12:47.476Z,98375.34
2019-03-17T19:18:08.666Z,98380.95
2019-03-17T19:23:30.002Z,98378.02
2019-03-17T19:28:51.198Z,98400.17
2019-03-17T19:34:12.510Z,98389.75
2019-03-17T19:39:34.189Z,98385.29
2019-03-17T19:44:55.338Z,98378.09
2019-03-17T19:50:16.664Z,98385.25
2019-03-17T19:55:37.850Z,98380.22
2019-03-17T20:00:59.206Z,98379.80
2019-03-17T20:06:20.787Z,98381.52
2019-03-17T20:11:41.965Z,98380.91
2019-03-17T20:17:02.820Z,98381.52
2019-03-17T20:22:24.040Z,98382.29
2019-03-17T20:27:45.532Z,98378.15
2019-03-17T20:33:06.875Z,98370.99
2019-03-17T20:38:27.823Z,98367.88
2019-03-17T20:43:49.018Z,98369.69
2019-03-17T20:49:10.180Z,98369.35
2019-03-17T20:54:31.265Z,98371.35
2019-03-17T20:59:52.612Z,98377.73
2019-03-17T21:05:13.673Z,98364.82
2019-03-17T21:10:34.635Z,98365.25
2019-03-17T21:15:55.454Z,98352.25
2019-03-17T21:21:16.523Z,98353.98
2019-03-17T21:26:37.724Z,98353.98
2019-03-17T21:31:58.885Z,98355.06
2019-03-17T21:37:20.136Z,98353.72
2019-03-17T21:42:41.304Z,98344.94
2019-03-17T21:48:02.589Z,98347.46
2019-03-17T21:53:23.787Z,98362.44
2019-03-17T21:58:45.120Z,98354.47
2019-03-17T22:04:06.013Z,98351.66
2019-03-17T22:09:27.284Z,98348.88
2019-03-17T22:14:48.212Z,98346.80
2019-03-17T22:20:09.915Z,98344.52
2019-03-17T22:25:31.060Z,98342.12
2019-03-17T22:30:53.342Z,98340.59
2019-03-17T22:36:14.474Z,98338.13
2019-03-17T22:41:35.722Z,98346.86
2019-03-17T22:46:56.998Z,98348.58
2019-03-17T22:52:18.415Z,98361.05
2019-03-17T22:57:39.519Z,98358.30
2019-03-17T23:03:00.846Z,98347.95
2019-03-17T23:08:23.432Z,98372.17
2019-03-17T23:13:44.951Z,98369.19
2019-03-17T23:19:06.233Z,98372.85
2019-03-17T23:24:27.366Z,98376.34
2019-03-17T23:29:48.852Z,98380.31
2019-03-17T23:35:09.926Z,98371.45
2019-03-17T23:40:31.209Z,98382.73
2019-03-17T23:45:52.448Z,98383.95
2019-03-17T23:51:13.703Z,98381.53
2019-03-17T23:56:34.814Z,98378.08
